Time;durP1;ratioP1;P1;durP2;ratioP2;P2;SDS_P1;SDS_P2;PMS_P1;PMS_P2;Temp;Humidity;BMP_temperature;BMP_pressure;BME280_temperature;BME280_humidity;BME280_pressure;Samples;Min_cycle;Max_cycle;Signal;HPM_P1;HPM_P2
2023/03/05 00:00:13;;;;;;;39.38;23.00;;;;;;;8.89;91.39;99488.03;5036714;28;20045;-63
2023/03/05 00:02:40;;;;;;;39.78;21.63;;;;;;;8.86;91.27;99480.44;5034660;28;20132;-63
2023/03/05 00:05:06;;;;;;;48.22;25.70;;;;;;;8.79;90.61;99487.31;5031348;28;20037;-63
2023/03/05 00:07:32;;;;;;;46.40;24.02;;;;;;;8.66;91.08;99484.28;5027920;28;20057;-63
2023/03/05 00:10:04;;;;;;;43.67;23.80;;;;;;;8.59;92.08;99478.78;5031703;28;20045;-64
2023/03/05 00:12:30;;;;;;;47.45;23.83;;;;;;;8.64;91.67;99478.31;5032575;28;20310;-63
2023/03/05 00:14:55;;;;;;;40.95;22.92;;;;;;;8.61;91.55;99476.00;5035202;28;20068;-63
2023/03/05 00:17:21;;;;;;;38.22;21.85;;;;;;;8.62;91.62;99475.84;5035766;28;20029;-63
2023/03/05 00:19:46;;;;;;;39.83;22.02;;;;;;;8.57;91.68;99493.13;5033206;28;20214;-63
2023/03/05 00:22:12;;;;;;;39.15;21.55;;;;;;;8.42;92.11;99492.88;5032785;28;20239;-64
2023/03/05 00:24:37;;;;;;;34.10;19.85;;;;;;;8.31;92.41;99485.13;5032352;28;20029;-64
2023/03/05 00:27:03;;;;;;;37.30;21.65;;;;;;;8.22;93.46;99486.06;5032186;28;20026;-63
2023/03/05 00:29:29;;;;;;;30.42;19.33;;;;;;;8.07;93.85;99484.94;5031362;28;20049;-63
2023/03/05 00:31:54;;;;;;;40.95;20.50;;;;;;;7.90;94.72;99478.72;5034064;28;20062;-63
2023/03/05 00:34:20;;;;;;;34.63;20.27;;;;;;;7.77;95.76;99473.00;5032771;28;20335;-63
2023/03/05 00:36:49;;;;;;;35.08;20.05;;;;;;;7.68;96.69;99467.66;5033590;28;20036;-63
2023/03/05 00:39:16;;;;;;;39.83;18.88;;;;;;;7.40;97.06;99458.13;5028579;28;20100;-64
2023/03/05 00:41:41;;;;;;;40.78;22.85;;;;;;;7.20;98.75;99453.94;5035657;28;20025;-64
2023/03/05 00:44:07;;;;;;;43.20;24.25;;;;;;;7.38;97.33;99448.72;5035542;28;20036;-63
2023/03/05 00:46:33;;;;;;;36.78;21.23;;;;;;;7.62;97.07;99456.88;5035029;28;20036;-63
2023/03/05 00:48:58;;;;;;;34.08;19.25;;;;;;;7.67;96.08;99447.53;5034777;28;20086;-63
2023/03/05 00:51:24;;;;;;;35.55;19.60;;;;;;;7.69;95.36;99456.13;5031706;28;20223;-63
2023/03/05 00:53:50;;;;;;;37.63;20.30;;;;;;;7.75;95.31;99459.13;5036228;28;20065;-64
2023/03/05 00:56:15;;;;;;;38.97;20.05;;;;;;;7.79;94.45;99455.22;5036269;28;20037;-63
2023/03/05 00:58:41;;;;;;;33.45;18.98;;;;;;;7.42;96.21;99444.81;5033127;28;20095;-63
2023/03/05 01:01:07;;;;;;;39.60;21.02;;;;;;;7.56;95.23;99446.94;5037150;28;20037;-63
2023/03/05 01:03:34;;;;;;;35.05;20.90;;;;;;;7.41;95.38;99448.44;5038508;28;20033;-63
2023/03/05 01:06:02;;;;;;;37.80;21.73;;;;;;;7.57;94.75;99440.69;5037294;28;20104;-63
2023/03/05 01:08:27;;;;;;;37.65;21.38;;;;;;;7.51;94.10;99431.56;5036059;28;20077;-63
2023/03/05 01:10:53;;;;;;;36.15;20.70;;;;;;;7.49;94.21;99433.53;5035341;28;20127;-64
2023/03/05 01:13:19;;;;;;;39.63;21.00;;;;;;;7.44;94.24;99438.44;5031632;28;20378;-64
2023/03/05 01:15:46;;;;;;;55.40;26.77;;;;;;;7.61;93.55;99439.41;5034682;28;20060;-63
2023/03/05 01:18:12;;;;;;;35.58;20.98;;;;;;;7.74;92.27;99439.84;5036343;28;20526;-63
2023/03/05 01:20:37;;;;;;;35.47;20.27;;;;;;;7.89;91.57;99446.25;5035380;28;20029;-63
2023/03/05 01:23:03;;;;;;;33.08;18.63;;;;;;;7.96;91.35;99435.91;5034888;28;20035;-64
2023/03/05 01:25:28;;;;;;;38.35;20.00;;;;;;;8.05;90.71;99436.81;5034406;28;20053;-64
2023/03/05 01:27:54;;;;;;;28.90;17.25;;;;;;;8.06;90.18;99446.38;5034232;28;20403;-63
2023/03/05 01:30:19;;;;;;;36.15;20.25;;;;;;;7.93;90.00;99444.13;5035807;28;20347;-63
2023/03/05 01:32:45;;;;;;;35.35;20.00;;;;;;;7.91;90.53;99448.72;5035221;28;20029;-63
2023/03/05 01:35:17;;;;;;;36.15;19.52;;;;;;;7.83;90.32;99438.94;5034685;28;20045;-63
2023/03/05 01:37:43;;;;;;;36.78;19.60;;;;;;;7.91;90.86;99441.66;5032007;28;20106;-64
2023/03/05 01:40:10;;;;;;;33.13;19.77;;;;;;;7.98;90.11;99424.25;5034509;28;20061;-63
2023/03/05 01:42:36;;;;;;;41.00;21.75;;;;;;;8.00;89.70;99440.75;5037573;28;20083;-63
2023/03/05 01:45:04;;;;;;;38.60;23.17;;;;;;;7.93;90.13;99431.78;5038646;28;20251;-63
2023/03/05 01:47:30;;;;;;;42.08;23.17;;;;;;;7.90;89.43;99429.44;5037206;28;20045;-64
2023/03/05 01:49:55;;;;;;;34.50;19.08;;;;;;;7.97;88.90;99432.31;5038680;28;20041;-64
2023/03/05 01:52:24;;;;;;;43.45;22.30;;;;;;;7.97;88.84;99421.75;5034560;28;20095;-63
2023/03/05 01:54:57;;;;;;;39.67;20.05;;;;;;;7.98;88.13;99423.41;5030286;28;20033;-63
2023/03/05 01:57:31;;;;;;;43.72;24.40;;;;;;;7.96;88.05;99423.56;5037216;28;20227;-63
2023/03/05 02:00:08;;;;;;;53.67;29.88;;;;;;;7.84;89.35;99421.31;5038694;28;20313;-63
2023/03/05 02:02:34;;;;;;;40.28;22.27;;;;;;;7.38;91.46;99415.31;5037249;28;20344;-64
2023/03/05 02:05:05;;;;;;;35.20;19.20;;;;;;;7.60;90.78;99414.88;5038745;28;20048;-63
2023/03/05 02:07:32;;;;;;;28.88;16.88;;;;;;;7.67;90.26;99421.19;5033469;28;20053;-63
2023/03/05 02:09:58;;;;;;;29.40;17.17;;;;;;;7.67;91.07;99421.19;5034107;28;20108;-63
2023/03/05 02:12:24;;;;;;;28.35;17.00;;;;;;;7.79;91.73;99415.69;5035644;28;20076;-63
2023/03/05 02:14:57;;;;;;;29.13;17.23;;;;;;;7.94;90.81;99417.63;5034888;28;20042;-63
2023/03/05 02:17:28;;;;;;;30.00;16.77;;;;;;;7.96;90.61;99413.03;5038175;28;20372;-63
2023/03/05 02:20:02;;;;;;;29.90;16.45;;;;;;;7.69;91.63;99415.75;5036708;28;20045;-64
2023/03/05 02:22:27;;;;;;;37.58;20.38;;;;;;;7.92;90.86;99419.59;5035206;28;20308;-64
2023/03/05 02:24:52;;;;;;;40.65;20.40;;;;;;;7.86;91.37;99417.56;5037649;28;20057;-64
2023/03/05 02:27:23;;;;;;;35.85;19.42;;;;;;;8.03;90.69;99418.50;5035957;28;20115;-64
2023/03/05 02:29:50;;;;;;;36.05;18.45;;;;;;;8.15;89.89;99412.00;5038541;28;20041;-64
2023/03/05 02:32:16;;;;;;;45.88;23.23;;;;;;;7.88;89.88;99414.78;5035630;28;20531;-64
2023/03/05 02:34:42;;;;;;;35.70;18.90;;;;;;;7.67;90.61;99421.19;5038156;28;20053;-65
2023/03/05 02:37:09;;;;;;;34.33;19.48;;;;;;;7.79;90.45;99415.69;5036013;28;20231;-64
2023/03/05 02:39:34;;;;;;;32.50;19.15;;;;;;;7.96;89.92;99417.47;5034411;28;20347;-64
2023/03/05 02:42:00;;;;;;;37.13;19.73;;;;;;;8.05;89.56;99408.63;5034270;28;20068;-64
2023/03/05 02:44:25;;;;;;;33.58;20.35;;;;;;;8.10;88.90;99398.44;5037109;28;20053;-64
2023/03/05 02:46:51;;;;;;;33.95;18.83;;;;;;;7.97;89.31;99405.94;5034217;28;20100;-63
2023/03/05 02:49:17;;;;;;;34.85;19.23;;;;;;;8.05;89.66;99410.44;5036526;28;20044;-65
2023/03/05 02:51:42;;;;;;;27.80;16.13;;;;;;;8.00;89.01;99403.00;5036802;28;20273;-65
2023/03/05 02:54:08;;;;;;;30.83;17.45;;;;;;;7.60;91.03;99403.50;5033698;28;20033;-63
2023/03/05 02:56:33;;;;;;;28.77;14.73;;;;;;;7.55;91.50;99403.94;5033898;28;20045;-64
2023/03/05 02:58:59;;;;;;;26.33;15.13;;;;;;;7.64;91.83;99399.59;5033976;28;20033;-64
2023/03/05 03:01:27;;;;;;;27.67;15.02;;;;;;;7.68;91.01;99395.66;5034320;28;20041;-64
2023/03/05 03:03:53;;;;;;;25.58;16.10;;;;;;;7.76;91.09;99402.81;5033101;28;20044;-65
2023/03/05 03:06:19;;;;;;;27.75;15.07;;;;;;;7.86;90.95;99411.47;5032652;28;20052;-63
2023/03/05 03:08:44;;;;;;;28.08;16.05;;;;;;;7.80;91.25;99417.34;5032759;28;20370;-64
2023/03/05 03:11:14;;;;;;;28.58;16.08;;;;;;;7.66;91.48;99419.53;5032220;28;20219;-64
2023/03/05 03:13:40;;;;;;;33.72;18.55;;;;;;;7.82;91.13;99418.00;5017148;28;20041;-65
2023/03/05 03:16:08;;;;;;;37.08;18.25;;;;;;;7.94;90.49;99414.97;5017040;28;20026;-64
2023/03/05 03:18:34;;;;;;;36.00;19.65;;;;;;;7.96;89.97;99407.75;5032321;28;20108;-64
2023/03/05 03:21:00;;;;;;;39.20;22.02;;;;;;;7.82;90.69;99412.75;5033659;28;20029;-63
2023/03/05 03:23:26;;;;;;;73.72;35.53;;;;;;;7.83;90.37;99406.50;5032998;28;20037;-65
2023/03/05 03:25:52;;;;;;;80.53;37.33;;;;;;;7.77;90.26;99413.19;5033029;28;20044;-65
2023/03/05 03:28:17;;;;;;;86.07;42.25;;;;;;;7.84;89.88;99401.06;5032548;28;20083;-63
2023/03/05 03:30:43;;;;;;;66.15;30.88;;;;;;;7.96;89.86;99404.28;5033348;28;20053;-63
2023/03/05 03:33:08;;;;;;;51.10;27.95;;;;;;;8.01;89.11;99405.47;5032873;28;20038;-64
2023/03/05 03:35:34;;;;;;;71.22;35.42;;;;;;;8.00;89.27;99401.19;5033253;28;20248;-65
2023/03/05 03:37:59;;;;;;;66.68;30.15;;;;;;;7.98;88.93;99399.69;5034370;28;20410;-65
2023/03/05 03:40:25;;;;;;;52.83;28.20;;;;;;;7.97;89.20;99400.66;5033401;28;20034;-64
2023/03/05 03:42:51;;;;;;;63.00;30.92;;;;;;;7.78;89.76;99395.56;5031422;28;20033;-64
2023/03/05 03:45:17;;;;;;;64.60;30.55;;;;;;;7.84;89.71;99392.34;5031970;28;20060;-63
2023/03/05 03:47:42;;;;;;;43.38;23.92;;;;;;;7.74;89.76;99395.06;5032986;28;20045;-65
2023/03/05 03:50:08;;;;;;;50.20;25.90;;;;;;;7.88;89.64;99391.03;5032397;28;20053;-64
2023/03/05 03:52:34;;;;;;;45.78;24.00;;;;;;;7.94;89.26;99391.25;5033439;28;20084;-64
2023/03/05 03:55:00;;;;;;;73.32;30.65;;;;;;;7.95;88.98;99389.44;5031799;28;20380;-63
2023/03/05 03:57:32;;;;;;;72.22;33.20;;;;;;;7.79;89.61;99386.69;5033051;28;20042;-63
2023/03/05 03:59:57;;;;;;;38.05;22.30;;;;;;;7.60;89.33;99385.06;5027577;28;20064;-64
2023/03/05 04:02:23;;;;;;;111.07;43.88;;;;;;;7.47;90.58;99387.25;5033937;28;20263;-63
2023/03/05 04:04:48;;;;;;;41.78;24.15;;;;;;;7.33;91.78;99388.59;5032808;28;21286;-64
2023/03/05 04:07:14;;;;;;;53.63;25.00;;;;;;;7.55;90.88;99387.31;5033068;28;20050;-64
2023/03/05 04:09:39;;;;;;;33.28;20.27;;;;;;;7.63;89.23;99395.28;5032965;28;20069;-63
2023/03/05 04:12:05;;;;;;;72.55;33.45;;;;;;;7.69;89.02;99395.50;5035825;28;20117;-63
2023/03/05 04:14:31;;;;;;;44.38;23.38;;;;;;;7.69;89.27;99406.06;5035082;28;20139;-63
2023/03/05 04:16:56;;;;;;;42.17;23.52;;;;;;;7.76;88.93;99395.72;5039169;28;20045;-64
2023/03/05 04:19:22;;;;;;;49.42;25.70;;;;;;;7.69;89.28;99389.41;5039990;28;20355;-64
2023/03/05 04:21:47;;;;;;;30.48;19.38;;;;;;;7.60;89.93;99393.78;5037847;28;20349;-64
2023/03/05 04:24:14;;;;;;;31.65;18.85;;;;;;;7.60;90.10;99395.59;5037016;28;20034;-63
2023/03/05 04:26:39;;;;;;;38.75;22.42;;;;;;;7.73;89.77;99400.47;5033200;28;20033;-64
2023/03/05 04:29:04;;;;;;;39.70;21.58;;;;;;;7.61;89.44;99405.16;5039770;28;20042;-64
2023/03/05 04:31:30;;;;;;;36.35;22.25;;;;;;;7.51;88.50;99409.69;5038678;28;20336;-64
2023/03/05 04:33:55;;;;;;;35.80;20.20;;;;;;;7.38;88.39;99409.22;5036771;28;20251;-65
2023/03/05 04:36:21;;;;;;;40.05;22.98;;;;;;;7.55;87.74;99411.84;5036119;28;20033;-64
2023/03/05 04:38:46;;;;;;;31.17;21.17;;;;;;;7.57;88.30;99409.91;5032043;28;20037;-63
2023/03/05 04:41:12;;;;;;;32.80;20.10;;;;;;;7.59;87.70;99400.03;5037028;28;20055;-63
2023/03/05 04:43:37;;;;;;;34.53;20.10;;;;;;;7.40;88.05;99405.47;5036172;28;20315;-63
2023/03/05 04:46:03;;;;;;;39.47;22.75;;;;;;;7.44;87.60;99404.19;5035690;28;20087;-64
2023/03/05 04:48:28;;;;;;;35.05;20.30;;;;;;;7.48;87.70;99402.91;5039794;28;20109;-64
2023/03/05 04:50:54;;;;;;;43.20;24.27;;;;;;;7.53;87.44;99399.81;5037885;28;20045;-63
2023/03/05 04:53:19;;;;;;;35.33;23.52;;;;;;;7.60;87.41;99398.22;5035456;28;20037;-63
2023/03/05 04:55:45;;;;;;;38.33;21.98;;;;;;;7.63;86.88;99396.13;5035752;28;20045;-64
2023/03/05 04:58:10;;;;;;;36.25;22.27;;;;;;;7.73;86.68;99400.47;5035689;28;20111;-64
2023/03/05 05:00:35;;;;;;;37.85;20.52;;;;;;;7.72;86.04;99398.81;5035003;28;20040;-63
2023/03/05 05:03:01;;;;;;;35.30;19.33;;;;;;;7.76;86.13;99411.53;5035521;28;20037;-63
2023/03/05 05:05:27;;;;;;;32.17;20.65;;;;;;;7.76;85.66;99406.28;5034526;28;20237;-63
2023/03/05 05:07:55;;;;;;;34.95;19.52;;;;;;;7.82;85.60;99410.09;5034105;28;20418;-63
2023/03/05 05:10:20;;;;;;;38.58;22.67;;;;;;;7.85;85.04;99412.44;5035419;28;20401;-65
2023/03/05 05:12:46;;;;;;;36.40;21.90;;;;;;;7.83;85.13;99409.94;5037058;28;20041;-63
2023/03/05 05:15:12;;;;;;;31.42;18.27;;;;;;;7.79;85.80;99408.59;5038939;28;20044;-64
2023/03/05 05:17:38;;;;;;;33.08;19.10;;;;;;;7.71;86.74;99408.53;5035672;28;20037;-64
2023/03/05 05:20:09;;;;;;;29.65;18.63;;;;;;;7.84;85.08;99411.59;5035359;28;20537;-64
2023/03/05 05:22:35;;;;;;;47.78;24.05;;;;;;;7.87;86.10;99413.94;5035320;28;20065;-63
2023/03/05 05:25:01;;;;;;;46.65;22.55;;;;;;;7.93;86.00;99413.31;5035023;28;20084;-63
2023/03/05 05:27:26;;;;;;;40.25;21.80;;;;;;;7.92;86.14;99409.03;5034117;28;20052;-64
2023/03/05 05:29:52;;;;;;;59.55;27.33;;;;;;;7.71;87.26;99411.16;5031312;28;20340;-64
2023/03/05 05:32:19;;;;;;;57.47;28.98;;;;;;;7.68;87.52;99417.56;5037195;28;20026;-63
2023/03/05 05:34:45;;;;;;;48.72;26.02;;;;;;;7.74;87.89;99421.41;5033314;28;20049;-63
2023/03/05 05:37:10;;;;;;;41.25;23.92;;;;;;;7.86;87.89;99424.63;5034034;28;20041;-63
2023/03/05 05:39:36;;;;;;;52.97;28.60;;;;;;;7.92;87.38;99426.66;5034895;28;20037;-63
2023/03/05 05:42:02;;;;;;;50.25;27.13;;;;;;;7.99;87.50;99423.25;5034001;28;20125;-65
2023/03/05 05:44:27;;;;;;;51.55;26.83;;;;;;;8.04;86.92;99432.53;5034555;28;20047;-65
2023/03/05 05:46:53;;;;;;;44.55;25.35;;;;;;;8.00;87.44;99434.63;5036557;28;20029;-64
2023/03/05 05:49:18;;;;;;;48.63;27.58;;;;;;;7.88;88.16;99435.84;5034558;28;20060;-63
2023/03/05 05:51:44;;;;;;;99.78;44.22;;;;;;;7.95;88.88;99436.91;5037418;28;20041;-64
2023/03/05 05:54:14;;;;;;;91.70;47.97;;;;;;;7.94;88.88;99443.16;5038367;28;20045;-64
2023/03/05 05:56:40;;;;;;;89.30;46.63;;;;;;;8.07;88.32;99442.75;5035781;28;20055;-65
2023/03/05 05:59:06;;;;;;;85.93;43.75;;;;;;;8.15;88.65;99445.47;5034451;28;20038;-64
2023/03/05 06:01:32;;;;;;;72.82;37.60;;;;;;;8.05;89.17;99439.44;5034601;28;20056;-63
2023/03/05 06:03:58;;;;;;;58.97;30.27;;;;;;;7.84;90.11;99455.59;5035197;28;20214;-64
2023/03/05 06:06:25;;;;;;;40.92;24.95;;;;;;;7.79;91.19;99447.31;5034669;28;20048;-64
2023/03/05 06:08:51;;;;;;;40.00;23.65;;;;;;;7.58;91.53;99458.97;5035420;28;20061;-64
2023/03/05 06:11:18;;;;;;;37.70;21.63;;;;;;;7.49;91.65;99446.72;5037524;28;20362;-65
2023/03/05 06:13:44;;;;;;;40.47;23.00;;;;;;;7.55;91.88;99453.19;5036400;28;20120;-63
2023/03/05 06:16:18;;;;;;;36.78;22.58;;;;;;;7.75;91.33;99446.78;5036769;28;20030;-64
2023/03/05 06:18:44;;;;;;;42.35;23.33;;;;;;;7.92;90.68;99443.31;5038504;28;20104;-64
2023/03/05 06:21:12;;;;;;;38.08;24.08;;;;;;;8.08;90.44;99439.16;5036027;28;20227;-64
2023/03/05 06:23:37;;;;;;;50.25;28.30;;;;;;;8.11;90.36;99436.19;5033481;28;20297;-65
2023/03/05 06:26:06;;;;;;;39.10;22.80;;;;;;;8.17;90.19;99435.59;5035275;28;20071;-65
2023/03/05 06:28:32;;;;;;;34.95;21.90;;;;;;;8.28;89.77;99440.59;5033748;28;20041;-64
2023/03/05 06:31:10;;;;;;;38.50;22.63;;;;;;;8.44;89.41;99446.03;5037841;28;20064;-64
2023/03/05 06:33:36;;;;;;;42.40;22.30;;;;;;;8.50;89.91;99442.78;5033591;28;20355;-65
2023/03/05 06:36:04;;;;;;;39.78;22.70;;;;;;;8.53;90.14;99444.28;5033084;28;20048;-64
2023/03/05 06:38:29;;;;;;;48.13;28.35;;;;;;;8.59;90.23;99449.75;5029725;28;20836;-63
2023/03/05 06:41:00;;;;;;;46.85;27.88;;;;;;;8.72;91.33;99443.22;5032663;28;20041;-64
2023/03/05 06:43:25;;;;;;;43.70;25.58;;;;;;;8.78;91.24;99446.06;5033671;28;20082;-64
2023/03/05 06:46:04;;;;;;;57.38;32.42;;;;;;;8.99;90.79;99448.31;5034487;28;20045;-64
2023/03/05 06:48:29;;;;;;;40.95;26.15;;;;;;;9.13;91.03;99450.34;5034373;28;20033;-65
2023/03/05 06:50:54;;;;;;;43.30;26.98;;;;;;;9.26;90.38;99449.88;5034938;28;20453;-65
2023/03/05 06:53:20;;;;;;;41.08;26.13;;;;;;;9.33;90.88;99450.91;5034883;28;20211;-64
2023/03/05 06:55:45;;;;;;;38.15;23.65;;;;;;;9.42;89.77;99446.47;5035218;28;20084;-64
2023/03/05 06:58:11;;;;;;;44.65;24.98;;;;;;;9.53;89.19;99441.72;5037552;28;20044;-64
2023/03/05 07:00:36;;;;;;;36.38;24.45;;;;;;;9.56;88.38;99445.84;5035473;28;20048;-65
2023/03/05 07:03:01;;;;;;;36.80;22.38;;;;;;;9.63;87.57;99446.03;5038125;28;20247;-65
2023/03/05 07:05:27;;;;;;;42.03;24.80;;;;;;;9.73;87.97;99436.94;5035694;28;20049;-64
2023/03/05 07:07:52;;;;;;;45.35;25.60;;;;;;;9.69;87.48;99434.78;5033690;28;20049;-64
2023/03/05 07:10:18;;;;;;;49.65;26.13;;;;;;;9.68;88.01;99433.16;5036385;28;20043;-64
2023/03/05 07:12:43;;;;;;;45.20;25.08;;;;;;;9.86;88.32;99431.19;5033692;28;20036;-65
2023/03/05 07:15:09;;;;;;;40.63;25.70;;;;;;;9.98;87.98;99431.66;5033694;28;20392;-65
2023/03/05 07:17:34;;;;;;;42.50;24.73;;;;;;;10.21;87.65;99441.44;5033815;28;20045;-64
2023/03/05 07:20:00;;;;;;;40.92;24.75;;;;;;;10.50;86.32;99440.09;5032528;28;20405;-64
2023/03/05 07:22:25;;;;;;;45.75;28.95;;;;;;;10.71;84.58;99443.03;5034151;28;20226;-64
2023/03/05 07:24:51;;;;;;;40.73;25.60;;;;;;;10.79;84.51;99445.66;5033459;28;20058;-64
2023/03/05 07:27:16;;;;;;;41.97;25.70;;;;;;;10.94;83.50;99436.97;5033429;28;20212;-64
2023/03/05 07:29:42;;;;;;;38.33;23.67;;;;;;;10.93;83.71;99438.81;5033875;28;20075;-65
2023/03/05 07:32:07;;;;;;;39.35;24.75;;;;;;;11.12;84.56;99438.38;5032353;28;20246;-64
2023/03/05 07:34:32;;;;;;;33.33;20.00;;;;;;;11.28;85.14;99437.47;5031616;28;20248;-64
2023/03/05 07:36:58;;;;;;;29.02;19.98;;;;;;;11.27;85.67;99438.47;5033288;28;20033;-64
2023/03/05 07:39:23;;;;;;;28.52;19.27;;;;;;;11.23;84.38;99439.00;5033461;28;20045;-64
2023/03/05 07:41:50;;;;;;;35.35;21.05;;;;;;;11.23;84.17;99439.00;5033443;28;20040;-66
2023/03/05 07:44:16;;;;;;;30.98;17.95;;;;;;;11.16;84.81;99438.88;5033310;28;20100;-66
2023/03/05 07:46:42;;;;;;;31.42;20.58;;;;;;;11.09;85.67;99435.25;5031540;28;20331;-64
2023/03/05 07:49:07;;;;;;;28.85;19.10;;;;;;;10.96;86.40;99432.34;5032125;28;20052;-64
2023/03/05 07:51:33;;;;;;;32.50;19.80;;;;;;;10.98;87.01;99425.03;5037129;28;20119;-64
2023/03/05 07:53:59;;;;;;;30.02;19.75;;;;;;;10.96;87.64;99427.88;5036949;28;20090;-64
2023/03/05 07:56:30;;;;;;;31.58;20.38;;;;;;;10.88;87.83;99420.78;5037538;28;20349;-64
2023/03/05 07:59:07;;;;;;;29.08;19.38;;;;;;;10.92;87.71;99413.31;5036536;28;20224;-64
2023/03/05 08:01:34;;;;;;;31.30;18.90;;;;;;;11.00;87.93;99418.56;5036205;28;20116;-65
2023/03/05 08:04:00;;;;;;;36.17;21.77;;;;;;;11.00;88.19;99412.44;5031710;28;20323;-66
2023/03/05 08:06:25;;;;;;;31.80;19.80;;;;;;;11.11;87.59;99414.72;5035439;28;20025;-64
2023/03/05 08:08:51;;;;;;;43.10;30.77;;;;;;;11.29;87.59;99403.84;5036126;28;20048;-64
2023/03/05 08:11:16;;;;;;;33.17;19.48;;;;;;;11.37;85.81;99399.31;5035854;28;20041;-64
2023/03/05 08:13:43;;;;;;;33.10;18.88;;;;;;;11.35;86.71;99401.31;5035435;28;20051;-64
2023/03/05 08:16:15;;;;;;;29.27;19.80;;;;;;;11.46;86.50;99408.09;5036038;28;20101;-66
2023/03/05 08:18:41;;;;;;;31.50;20.38;;;;;;;11.55;86.63;99398.25;5038639;28;20252;-65
2023/03/05 08:21:14;;;;;;;34.83;20.20;;;;;;;11.67;86.11;99397.66;5039973;28;20029;-64
2023/03/05 08:23:39;;;;;;;36.03;22.48;;;;;;;11.85;87.34;99386.75;5035911;28;20247;-64
2023/03/05 08:26:17;;;;;;;36.42;22.48;;;;;;;12.09;87.41;99383.06;5037560;28;20052;-65
2023/03/05 08:28:43;;;;;;;37.17;22.67;;;;;;;12.28;86.69;99384.38;5037482;28;20091;-64
2023/03/05 08:31:10;;;;;;;33.75;20.67;;;;;;;12.37;86.42;99375.31;5037140;28;20045;-64
2023/03/05 08:33:35;;;;;;;38.80;22.65;;;;;;;12.37;86.25;99378.78;5037020;28;20307;-65
2023/03/05 08:36:01;;;;;;;31.40;19.77;;;;;;;12.31;86.61;99376.03;5038737;28;20041;-65
2023/03/05 08:38:26;;;;;;;36.33;22.00;;;;;;;12.18;85.85;99375.84;5038467;28;20033;-65
2023/03/05 08:40:52;;;;;;;29.83;18.10;;;;;;;12.14;85.42;99378.03;5040338;28;20327;-64
2023/03/05 08:43:17;;;;;;;26.88;16.02;;;;;;;12.10;84.83;99380.22;5037641;28;20026;-64
2023/03/05 08:45:43;;;;;;;26.88;15.38;;;;;;;12.04;85.24;99372.16;5035766;28;20044;-64
2023/03/05 08:48:08;;;;;;;25.17;15.10;;;;;;;11.78;85.47;99376.03;5035810;28;20033;-64
2023/03/05 08:50:36;;;;;;;24.60;13.75;;;;;;;11.71;85.88;99369.78;5036825;28;20099;-64
2023/03/05 08:53:01;;;;;;;23.08;13.75;;;;;;;11.50;85.91;99367.78;5036622;28;20037;-64
2023/03/05 08:55:27;;;;;;;27.65;15.30;;;;;;;11.42;86.03;99366.97;5036414;28;20323;-64
2023/03/05 08:57:52;;;;;;;29.67;15.82;;;;;;;11.43;86.58;99355.38;5036462;28;20021;-66
2023/03/05 09:00:18;;;;;;;26.92;14.77;;;;;;;11.20;87.31;99368.63;5036183;28;20045;-65
2023/03/05 09:02:43;;;;;;;26.90;15.18;;;;;;;11.39;87.24;99362.03;5036397;28;20052;-64
2023/03/05 09:05:09;;;;;;;28.75;14.43;;;;;;;11.46;87.04;99355.88;5035955;28;20030;-64
2023/03/05 09:07:36;;;;;;;26.52;15.77;;;;;;;11.52;87.73;99351.69;5036295;28;20781;-64
2023/03/05 09:10:04;;;;;;;32.92;15.30;;;;;;;11.40;88.31;99353.91;5038969;28;20113;-64
2023/03/05 09:12:29;;;;;;;26.55;15.48;;;;;;;11.54;88.18;99351.53;5037907;28;20037;-65
2023/03/05 09:14:55;;;;;;;25.60;15.52;;;;;;;11.58;87.42;99353.63;5035136;28;20033;-64
2023/03/05 09:17:20;;;;;;;30.80;18.35;;;;;;;11.59;87.54;99349.97;5032995;28;20104;-66
2023/03/05 09:19:46;;;;;;;28.58;15.63;;;;;;;11.58;87.75;99345.69;5038930;28;20069;-65
2023/03/05 09:22:11;;;;;;;31.77;16.20;;;;;;;11.47;87.68;99351.41;5039268;28;20056;-65
2023/03/05 09:24:37;;;;;;;28.52;16.17;;;;;;;11.58;87.42;99350.16;5035251;28;20270;-64
2023/03/05 09:27:02;;;;;;;27.55;16.30;;;;;;;11.73;87.26;99354.50;5034598;28;20091;-65
2023/03/05 09:29:29;;;;;;;26.83;15.70;;;;;;;11.56;87.22;99344.22;5035146;28;20216;-64
2023/03/05 09:31:55;;;;;;;28.92;15.60;;;;;;;11.63;87.81;99350.44;5035140;28;20044;-65
2023/03/05 09:34:21;;;;;;;28.50;15.45;;;;;;;11.64;87.89;99339.66;5037594;28;20045;-65
2023/03/05 09:36:47;;;;;;;29.48;16.58;;;;;;;11.70;87.10;99335.47;5037480;28;20103;-64
2023/03/05 09:39:12;;;;;;;28.67;15.48;;;;;;;11.87;86.58;99336.19;5035395;28;20041;-64
2023/03/05 09:41:43;;;;;;;25.33;15.18;;;;;;;11.91;86.86;99335.63;5034506;28;20041;-64
2023/03/05 09:44:33;;;;;;;31.83;15.82;;;;;;;12.12;87.01;99325.16;5036414;28;20113;-65
2023/03/05 09:47:01;;;;;;;29.70;15.32;;;;;;;12.28;85.74;99313.53;5034389;28;20627;-64
2023/03/05 09:49:42;;;;;;;37.67;18.10;;;;;;;12.26;84.22;99320.03;5027726;28;20343;-64
2023/03/05 09:52:34;;;;;;;30.92;16.40;;;;;;;12.20;84.36;99321.56;5038787;28;20033;-64
2023/03/05 09:55:00;;;;;;;30.90;16.02;;;;;;;12.41;84.70;99311.03;5035733;28;20296;-66
2023/03/05 09:57:37;;;;;;;29.88;15.88;;;;;;;12.51;83.64;99310.78;5034823;28;20211;-64
2023/03/05 10:00:19;;;;;;;37.35;20.63;;;;;;;12.46;83.35;99306.00;5031578;28;20060;-64
2023/03/05 10:02:57;;;;;;;41.72;21.40;;;;;;;12.59;82.55;99302.72;5035254;28;20395;-64
2023/03/05 10:05:42;;;;;;;28.45;15.43;;;;;;;12.64;81.79;99297.69;5033774;28;20048;-64
2023/03/05 10:08:10;;;;;;;32.40;17.35;;;;;;;12.54;81.22;99302.44;5035943;28;20339;-65
2023/03/05 10:10:46;;;;;;;29.95;17.00;;;;;;;12.54;81.82;99293.66;5037650;28;20041;-65
2023/03/05 10:13:21;;;;;;;31.10;15.68;;;;;;;12.61;80.99;99290.06;5034702;28;20044;-65
2023/03/05 10:16:19;;;;;;;33.67;16.85;;;;;;;12.71;82.06;99282.63;5029957;28;20051;-65
2023/03/05 10:19:07;;;;;;;30.10;15.80;;;;;;;12.81;80.61;99270.88;5033165;28;20161;-64
2023/03/05 10:21:43;;;;;;;55.60;31.00;;;;;;;12.82;81.40;99268.03;5032669;28;20045;-64
2023/03/05 10:24:33;;;;;;;33.97;18.70;;;;;;;12.95;81.82;99265.53;5029463;28;20034;-64
2023/03/05 10:27:34;;;;;;;30.75;16.50;;;;;;;13.03;81.10;99262.75;5033649;28;20037;-64
2023/03/05 10:30:18;;;;;;;29.38;15.73;;;;;;;13.11;80.36;99256.47;5031176;28;20083;-65
2023/03/05 10:32:49;;;;;;;28.42;16.08;;;;;;;13.18;80.54;99248.59;5031612;28;20100;-65
2023/03/05 10:35:20;;;;;;;27.13;15.93;;;;;;;13.27;80.73;99242.97;5037238;28;20037;-65
2023/03/05 10:38:20;;;;;;;32.30;16.63;;;;;;;13.27;77.84;99242.97;5035884;28;20273;-64
2023/03/05 10:40:46;;;;;;;29.83;15.52;;;;;;;13.27;77.18;99234.97;5037706;28;20088;-65
2023/03/05 10:43:46;;;;;;;27.92;15.63;;;;;;;13.32;78.63;99229.91;5034270;28;20033;-64
2023/03/05 10:46:16;;;;;;;27.83;14.95;;;;;;;13.37;79.17;99221.34;5034839;28;20205;-64
2023/03/05 10:48:57;;;;;;;26.30;15.68;;;;;;;13.37;78.74;99219.50;5030174;28;20823;-64
2023/03/05 10:51:47;;;;;;;26.45;14.15;;;;;;;13.17;76.53;99212.41;5036270;28;20041;-66
2023/03/05 10:54:25;;;;;;;25.00;14.35;;;;;;;13.28;76.42;99212.69;5037096;28;20060;-64
2023/03/05 10:57:14;;;;;;;27.95;14.43;;;;;;;13.30;76.87;99200.03;5033124;28;20032;-64
2023/03/05 11:00:16;;;;;;;38.03;17.95;;;;;;;13.33;76.72;99193.50;5032722;28;20065;-65
2023/03/05 11:03:01;;;;;;;30.08;16.10;;;;;;;13.30;76.68;99186.72;5031680;28;20060;-64
2023/03/05 11:05:47;;;;;;;25.20;13.85;;;;;;;13.40;74.82;99184.56;5034332;28;20530;-64
2023/03/05 11:08:34;;;;;;;27.65;14.95;;;;;;;13.51;75.52;99175.22;5032901;28;20057;-64
2023/03/05 11:11:09;;;;;;;26.52;15.13;;;;;;;13.60;76.52;99165.28;5029976;28;20045;-66
2023/03/05 11:13:50;;;;;;;25.42;14.07;;;;;;;13.67;75.97;99166.13;5033759;28;20037;-65
2023/03/05 11:16:22;;;;;;;26.20;15.10;;;;;;;13.68;76.40;99159.81;5032035;28;20033;-64
2023/03/05 11:18:48;;;;;;;26.08;14.20;;;;;;;13.77;76.09;99152.47;5032862;28;20041;-64
2023/03/05 11:21:26;;;;;;;27.00;14.73;;;;;;;13.72;76.15;99143.25;5033470;28;20040;-64
2023/03/05 11:24:12;;;;;;;30.25;14.68;;;;;;;13.73;74.38;99136.91;5031871;28;20033;-64
2023/03/05 11:26:52;;;;;;;24.40;13.77;;;;;;;13.70;74.01;99137.31;5033447;28;20060;-66